首页
METAR-TAF:

METAR-TAF

机场 :

Rochester International Airport

羅徹斯特, 明尼蘇達州, 美国

纬度: 43-54-15N, 经度: 092-29-30W, 海拔: 401米

当前天气观测

该预报发布于38分钟前的00:18 UTC
风速5节,风向西南
温度 -3°C
湿度 93%
气压 1015 hPa
能見度: 16.1公里
多云层高于1300英尺
阴天层高于1700英尺

METAR: KRST 140018Z 22005KT 10SM BKN013 OVC017 M03/M04 A2996 RMK AO2 T10281044

时间: 18:56 (00:56 UTC)

预报

该预报发布于1小时和18分钟前的23:38 UTC
预报有效从14日的 00点(UTC)到 14日的 24点(UTC)
风速7节,风向西
能見度: 4.8公里
阴天层高于2500英尺
小雪
从 14日的 0100点(UTC)
风速6节,风向西北
能見度: 10公里
阴天层高于2500英尺
从 14日的 1400点(UTC)
风速7节,风向西北
能見度: 10公里
散云层高于3500英尺
从 14日的 1900点(UTC)
风速8节,风向西
能見度: 10公里
天空无云

TAF: KRST 132338Z 1400/1424 28007KT 3SM -SN OVC025 FM140100 31006KT P6SM OVC025 FM141400 31007KT P6SM SCT035 FM141900 27008KT P6SM SKC

超过4000个机场的气象观测和天气预报(METAR&TAF报告)。

可查询的气象台以黄色和红色小点在地图上表示。

将鼠标移到小点上方,可查看气象台名称。

然后点击查看天气观测和预报。

如需切换地图:点击带黑十字的绿色按钮放大地图;点击带横线的绿色按钮缩小地图;或者点击绿色箭头查看邻近地区的地图。


METAR-TAF: